createdAt,value
2022-12-09T00:01:20.566Z,11.00
2022-12-09T00:03:50.515Z,11.80
2022-12-09T00:06:26.647Z,11.70
2022-12-09T00:08:57.594Z,12.20
2022-12-09T00:11:27.043Z,12.40
2022-12-09T00:14:01.039Z,11.50
2022-12-09T00:16:29.841Z,11.40
2022-12-09T00:18:59.085Z,10.10
2022-12-09T00:21:33.409Z,11.30
2022-12-09T00:24:06.985Z,11.00
2022-12-09T00:26:35.517Z,12.20
2022-12-09T00:29:04.723Z,12.00
2022-12-09T00:31:38.037Z,12.30
2022-12-09T00:34:12.132Z,11.80
2022-12-09T00:36:41.013Z,12.70
2022-12-09T00:39:12.687Z,11.20
2022-12-09T00:41:41.495Z,12.20
2022-12-09T00:44:11.414Z,12.00
2022-12-09T00:46:40.014Z,12.00
2022-12-09T00:49:08.646Z,11.80
2022-12-09T00:51:37.436Z,12.30
2022-12-09T00:54:06.297Z,11.60
2022-12-09T00:56:34.953Z,12.20
2022-12-09T00:59:03.972Z,11.40
2022-12-09T01:01:32.957Z,10.20
2022-12-09T01:04:02.849Z,11.00
2022-12-09T01:06:31.633Z,10.20
2022-12-09T01:09:02.105Z,10.60
2022-12-09T01:11:31.116Z,10.60
2022-12-09T01:14:02.389Z,11.60
2022-12-09T01:16:33.886Z,11.00
2022-12-09T01:19:07.911Z,10.40
2022-12-09T01:21:36.744Z,9.10
2022-12-09T01:24:11.756Z,9.30
2022-12-09T01:26:40.973Z,9.90
2022-12-09T01:29:09.744Z,10.50
2022-12-09T01:31:38.475Z,10.50
2022-12-09T01:34:07.568Z,11.00
2022-12-09T01:36:36.306Z,10.50
2022-12-09T01:39:06.348Z,9.30
2022-12-09T01:41:35.829Z,9.20
2022-12-09T01:44:25.434Z,8.80
2022-12-09T01:46:58.981Z,9.40
2022-12-09T01:49:39.746Z,9.00
2022-12-09T01:52:19.142Z,8.80
2022-12-09T01:54:50.758Z,10.20
2022-12-09T01:57:20.079Z,9.80
2022-12-09T01:59:48.705Z,10.10
2022-12-09T02:02:19.921Z,9.00
2022-12-09T02:04:50.264Z,8.80
2022-12-09T02:07:20.516Z,8.40
2022-12-09T02:09:53.680Z,9.20
2022-12-09T02:12:50.253Z,9.10
2022-12-09T02:15:38.015Z,8.80
2022-12-09T02:18:20.802Z,10.00
2022-12-09T02:21:04.672Z,10.40
2022-12-09T02:24:18.982Z,9.10
2022-12-09T02:27:11.235Z,9.60
2022-12-09T02:30:24.614Z,9.60
2022-12-09T02:33:26.649Z,9.10
2022-12-09T02:36:06.310Z,8.40
2022-12-09T02:38:39.447Z,9.10
2022-12-09T02:41:21.888Z,10.70
2022-12-09T02:44:00.439Z,8.80
2022-12-09T02:46:34.241Z,8.70
2022-12-09T02:49:05.563Z,8.20
2022-12-09T02:51:38.571Z,8.50
2022-12-09T02:54:14.297Z,8.70
2022-12-09T02:57:01.489Z,8.60
2022-12-09T02:59:30.477Z,9.00
2022-12-09T03:02:26.501Z,9.20
2022-12-09T03:05:21.537Z,9.30
2022-12-09T03:07:53.304Z,10.00
2022-12-09T03:10:54.177Z,9.50
2022-12-09T03:13:39.355Z,9.20
2022-12-09T03:16:20.363Z,9.60
2022-12-09T03:18:58.766Z,9.90
2022-12-09T03:21:31.770Z,9.70
2022-12-09T03:24:02.111Z,9.20
2022-12-09T03:26:34.137Z,9.50
2022-12-09T03:29:09.250Z,9.80
2022-12-09T03:31:39.054Z,9.90
2022-12-09T03:34:14.440Z,9.40
2022-12-09T03:36:45.402Z,9.70
2022-12-09T03:39:17.468Z,10.40
2022-12-09T03:41:53.600Z,10.10
2022-12-09T03:44:43.371Z,9.50
2022-12-09T03:47:12.140Z,9.20
2022-12-09T03:49:41.854Z,9.60
2022-12-09T03:52:51.747Z,10.20
2022-12-09T03:55:34.267Z,11.10
2022-12-09T03:58:07.365Z,10.20
2022-12-09T04:00:40.179Z,11.00
2022-12-09T04:03:10.019Z,10.90
2022-12-09T04:05:39.685Z,10.20
2022-12-09T04:08:08.615Z,11.80
2022-12-09T04:10:37.605Z,10.80
2022-12-09T04:13:06.293Z,10.60
2022-12-09T04:15:35.289Z,10.60
2022-12-09T04:18:05.933Z,11.00
2022-12-09T04:20:34.714Z,11.60
2022-12-09T04:23:03.588Z,11.90
2022-12-09T04:25:32.210Z,11.60
2022-12-09T04:30:30.684Z,11.40
2022-12-09T04:33:02.863Z,11.10
2022-12-09T04:35:31.432Z,11.40
2022-12-09T04:38:00.068Z,12.40
2022-12-09T04:40:28.976Z,10.40
2022-12-09T04:42:58.713Z,11.80
2022-12-09T04:45:27.353Z,11.00
2022-12-09T04:47:55.844Z,11.70
2022-12-09T04:50:24.603Z,11.40
2022-12-09T04:52:53.455Z,11.80
2022-12-09T04:55:22.481Z,11.70
2022-12-09T04:57:51.506Z,12.40
2022-12-09T05:00:20.668Z,11.20
2022-12-09T05:02:49.665Z,12.10
2022-12-09T05:05:18.594Z,12.20
2022-12-09T05:07:48.013Z,11.20
2022-12-09T05:10:17.364Z,12.60
2022-12-09T05:12:45.989Z,12.60
2022-12-09T05:15:14.603Z,12.80
2022-12-09T05:17:43.196Z,12.30
2022-12-09T05:20:13.647Z,11.70
2022-12-09T05:22:43.520Z,12.20
2022-12-09T05:25:18.626Z,14.00
2022-12-09T05:27:47.200Z,11.40
2022-12-09T05:30:16.367Z,12.30
2022-12-09T05:32:49.508Z,12.90
2022-12-09T05:35:18.682Z,12.80
2022-12-09T05:37:47.521Z,13.80
2022-12-09T05:40:16.111Z,13.00
2022-12-09T05:42:44.622Z,13.00
2022-12-09T05:45:13.721Z,11.60
2022-12-09T05:47:42.528Z,12.10
2022-12-09T05:50:12.482Z,13.20
2022-12-09T05:52:41.584Z,13.00
2022-12-09T05:55:11.323Z,11.80
2022-12-09T05:57:40.332Z,12.50
2022-12-09T06:00:10.630Z,12.10
2022-12-09T06:02:42.692Z,12.90
2022-12-09T06:05:11.441Z,14.40
2022-12-09T06:07:40.748Z,12.30
2022-12-09T06:10:10.652Z,12.10
2022-12-09T06:12:39.917Z,12.60
2022-12-09T06:15:10.581Z,12.30
2022-12-09T06:17:41.064Z,11.50
2022-12-09T06:22:46.916Z,13.30
2022-12-09T06:25:16.272Z,12.50
2022-12-09T06:30:14.912Z,12.10
2022-12-09T06:32:43.766Z,12.50
2022-12-09T06:35:12.645Z,12.50
2022-12-09T06:37:42.260Z,13.00
2022-12-09T06:40:12.468Z,12.80
2022-12-09T06:42:41.314Z,13.10
2022-12-09T06:45:10.838Z,12.90
2022-12-09T06:47:39.994Z,12.20
2022-12-09T06:50:12.524Z,11.50
2022-12-09T06:52:42.225Z,10.70
2022-12-09T06:55:14.551Z,12.10
2022-12-09T06:57:43.814Z,13.10
2022-12-09T07:00:14.144Z,12.00
2022-12-09T07:02:43.071Z,14.30
2022-12-09T07:05:13.008Z,11.10
2022-12-09T07:07:45.137Z,12.20
2022-12-09T07:10:13.821Z,12.60
2022-12-09T07:12:42.560Z,11.60
2022-12-09T07:15:12.323Z,13.20
2022-12-09T07:17:44.128Z,14.00
2022-12-09T07:20:13.516Z,13.10
2022-12-09T07:22:42.653Z,12.80
2022-12-09T07:25:13.474Z,13.50
2022-12-09T07:27:42.462Z,14.20
2022-12-09T07:30:11.656Z,14.40
2022-12-09T07:32:40.657Z,13.50
2022-12-09T07:35:12.593Z,12.80
2022-12-09T07:37:41.399Z,14.10
2022-12-09T07:40:11.164Z,14.70
2022-12-09T07:42:39.802Z,14.60
2022-12-09T07:45:09.776Z,16.10
2022-12-09T07:47:40.114Z,15.40
2022-12-09T07:50:26.693Z,16.60
2022-12-09T07:52:55.532Z,14.80
2022-12-09T07:55:24.614Z,13.00
2022-12-09T07:57:53.454Z,13.20
2022-12-09T08:00:23.311Z,14.10
2022-12-09T08:02:54.002Z,13.30
2022-12-09T08:05:27.462Z,15.20
2022-12-09T08:07:56.697Z,15.10
2022-12-09T08:10:26.231Z,16.20
2022-12-09T08:12:55.362Z,14.80
2022-12-09T08:15:24.371Z,14.10
2022-12-09T08:17:52.987Z,14.90
2022-12-09T08:20:27.310Z,14.20
2022-12-09T08:22:58.514Z,14.50
2022-12-09T08:25:27.376Z,12.80
2022-12-09T08:27:57.038Z,11.20
2022-12-09T08:30:26.341Z,12.90
2022-12-09T08:32:55.507Z,11.70
2022-12-09T08:35:24.384Z,11.40
2022-12-09T08:37:53.362Z,10.30
2022-12-09T08:40:22.301Z,11.80
2022-12-09T08:42:51.306Z,10.60
2022-12-09T08:45:20.646Z,10.40
2022-12-09T08:47:49.965Z,10.40
2022-12-09T08:50:19.083Z,10.30
2022-12-09T08:52:47.865Z,9.80
2022-12-09T08:55:16.530Z,10.20
2022-12-09T08:57:45.230Z,10.60
2022-12-09T09:00:15.207Z,11.10
2022-12-09T09:02:46.649Z,10.50
2022-12-09T09:07:44.756Z,11.20
2022-12-09T09:10:13.844Z,13.10
2022-12-09T09:15:14.396Z,13.30
2022-12-09T09:17:49.807Z,12.70
2022-12-09T09:20:20.948Z,12.30
2022-12-09T09:22:50.072Z,14.70
2022-12-09T09:25:19.289Z,14.40
2022-12-09T09:27:47.865Z,12.60
2022-12-09T09:30:18.460Z,14.00
2022-12-09T09:32:47.272Z,12.90
2022-12-09T09:35:17.225Z,14.50
2022-12-09T09:37:46.462Z,14.30
2022-12-09T09:40:16.079Z,12.90
2022-12-09T09:42:49.848Z,13.40
2022-12-09T09:45:22.093Z,13.30
2022-12-09T09:52:15.828Z,14.30
2022-12-09T09:54:45.131Z,14.50
2022-12-09T09:57:22.167Z,13.90
2022-12-09T10:00:08.499Z,13.00
2022-12-09T10:03:10.399Z,12.50
2022-12-09T10:05:59.689Z,12.30
2022-12-09T10:09:34.330Z,10.90
2022-12-09T10:12:24.697Z,10.40
2022-12-09T10:15:01.039Z,9.70
2022-12-09T10:17:41.168Z,10.40
2022-12-09T10:20:33.173Z,10.40
2022-12-09T10:23:12.934Z,9.70
2022-12-09T10:25:53.038Z,10.50
2022-12-09T10:28:45.770Z,10.40
2022-12-09T10:31:15.069Z,10.90
2022-12-09T10:33:43.894Z,9.00
2022-12-09T10:36:35.971Z,10.30
2022-12-09T10:39:06.817Z,8.90
2022-12-09T10:42:12.860Z,9.70
2022-12-09T10:44:42.441Z,9.70
2022-12-09T10:47:20.803Z,8.40
2022-12-09T10:49:52.697Z,10.30
2022-12-09T10:52:25.035Z,10.00
2022-12-09T10:54:53.869Z,9.70
2022-12-09T10:57:40.677Z,10.10
2022-12-09T11:00:27.132Z,9.30
2022-12-09T11:02:58.421Z,9.40
2022-12-09T11:05:32.759Z,8.90
2022-12-09T11:08:01.828Z,9.60
2022-12-09T11:10:31.098Z,9.40
2022-12-09T11:13:06.563Z,9.70
2022-12-09T11:15:42.020Z,9.70
2022-12-09T11:18:37.397Z,9.60
2022-12-09T11:21:28.195Z,9.00
2022-12-09T11:24:02.898Z,8.60
2022-12-09T11:26:39.193Z,9.30
2022-12-09T11:29:19.667Z,8.20
2022-12-09T11:31:49.081Z,8.60
2022-12-09T11:34:26.308Z,8.00
2022-12-09T11:36:58.737Z,9.20
2022-12-09T11:39:34.195Z,9.60
2022-12-09T11:42:19.984Z,9.60
2022-12-09T11:45:09.799Z,8.70
2022-12-09T11:50:42.577Z,9.20
2022-12-09T11:53:31.168Z,9.10
2022-12-09T11:56:08.491Z,9.20
2022-12-09T11:59:05.758Z,9.60
2022-12-09T12:02:05.072Z,8.90
2022-12-09T12:04:48.849Z,9.20
2022-12-09T12:07:50.752Z,11.10
2022-12-09T12:10:29.061Z,13.90
2022-12-09T12:13:23.109Z,14.00
2022-12-09T12:16:04.992Z,13.70
2022-12-09T12:19:14.463Z,12.30
2022-12-09T12:25:18.045Z,11.30
2022-12-09T12:28:14.773Z,10.70
2022-12-09T12:31:05.268Z,11.30
2022-12-09T12:34:24.189Z,11.00
2022-12-09T12:37:15.235Z,12.00
2022-12-09T12:40:07.367Z,11.20
2022-12-09T12:43:30.701Z,10.90
2022-12-09T12:46:18.083Z,10.00
2022-12-09T12:49:29.936Z,10.60
2022-12-09T12:52:12.673Z,10.40
2022-12-09T12:55:20.233Z,12.00
2022-12-09T12:58:11.349Z,10.40
2022-12-09T13:01:34.014Z,11.20
2022-12-09T13:04:27.933Z,10.50
2022-12-09T13:07:24.783Z,10.00
2022-12-09T13:10:16.192Z,10.90
2022-12-09T13:12:57.097Z,10.40
2022-12-09T13:15:35.003Z,10.50
2022-12-09T13:18:32.174Z,10.00
2022-12-09T13:21:03.625Z,10.80
2022-12-09T13:24:00.372Z,11.90
2022-12-09T13:26:55.860Z,11.40
2022-12-09T13:29:33.920Z,10.70
2022-12-09T13:32:39.754Z,12.60
2022-12-09T13:35:21.593Z,11.80
2022-12-09T13:37:52.543Z,11.60
2022-12-09T13:40:21.027Z,11.90
2022-12-09T13:43:10.703Z,11.90
2022-12-09T13:48:17.235Z,13.00
2022-12-09T13:50:51.987Z,12.70
2022-12-09T13:53:20.492Z,13.60
2022-12-09T13:56:16.644Z,11.90
2022-12-09T13:58:49.897Z,12.00
2022-12-09T14:01:53.538Z,11.70
2022-12-09T14:04:28.598Z,11.30
2022-12-09T14:07:26.374Z,12.20
2022-12-09T14:09:57.807Z,11.60
2022-12-09T14:12:26.239Z,12.50
2022-12-09T14:15:01.749Z,11.30
2022-12-09T14:17:30.259Z,12.00
2022-12-09T14:20:23.151Z,11.50
2022-12-09T14:23:07.657Z,11.40
2022-12-09T14:25:36.141Z,11.30
2022-12-09T14:28:10.740Z,11.50
2022-12-09T14:31:03.228Z,12.20
2022-12-09T14:33:38.107Z,12.40
2022-12-09T14:36:15.841Z,12.10
2022-12-09T14:39:24.764Z,11.80
2022-12-09T14:42:04.329Z,10.90
2022-12-09T14:44:59.671Z,12.50
2022-12-09T14:47:31.930Z,12.10
2022-12-09T14:50:18.069Z,12.10
2022-12-09T14:53:18.789Z,11.90
2022-12-09T14:55:48.447Z,12.40
2022-12-09T15:01:02.832Z,11.60
2022-12-09T15:03:36.510Z,12.60
2022-12-09T15:06:19.529Z,12.10
2022-12-09T15:08:51.190Z,13.10
2022-12-09T15:11:31.693Z,13.50
2022-12-09T15:14:26.153Z,12.40
2022-12-09T15:16:57.272Z,13.20
2022-12-09T15:22:28.321Z,12.90
2022-12-09T15:24:56.913Z,12.30
2022-12-09T15:27:26.417Z,13.30
2022-12-09T15:29:55.195Z,12.60
2022-12-09T15:32:29.025Z,12.90
2022-12-09T15:35:18.143Z,12.30
2022-12-09T15:37:49.712Z,14.30
2022-12-09T15:40:22.616Z,13.70
2022-12-09T15:42:55.047Z,12.70
2022-12-09T15:45:28.861Z,12.70
2022-12-09T15:48:07.539Z,12.40
2022-12-09T15:51:06.121Z,12.80
2022-12-09T15:53:43.497Z,13.20
2022-12-09T15:56:19.256Z,12.30
2022-12-09T15:58:52.505Z,12.10
2022-12-09T16:01:31.080Z,13.20
2022-12-09T16:04:01.743Z,13.80
2022-12-09T16:06:35.155Z,13.70
2022-12-09T16:09:13.073Z,13.90
2022-12-09T16:11:46.177Z,13.40
2022-12-09T16:14:17.533Z,13.40
2022-12-09T16:17:01.672Z,13.70
2022-12-09T16:19:33.713Z,15.00
2022-12-09T16:22:31.906Z,14.50
2022-12-09T16:25:22.260Z,15.20
2022-12-09T16:28:01.942Z,13.90
2022-12-09T16:33:03.803Z,13.30
2022-12-09T16:35:45.261Z,13.80
2022-12-09T16:38:18.485Z,15.00
2022-12-09T16:40:46.948Z,15.10
2022-12-09T16:43:19.141Z,15.30
2022-12-09T16:46:01.822Z,14.60
2022-12-09T16:48:30.914Z,15.10
2022-12-09T16:51:13.453Z,14.70
2022-12-09T16:53:49.370Z,15.40
2022-12-09T16:56:27.276Z,14.50
2022-12-09T16:58:56.858Z,15.10
2022-12-09T17:04:28.959Z,14.80
2022-12-09T17:06:57.531Z,15.30
2022-12-09T17:09:26.013Z,14.00
2022-12-09T17:11:54.610Z,15.40
2022-12-09T17:14:23.231Z,14.60
2022-12-09T17:16:51.693Z,15.90
2022-12-09T17:19:23.021Z,14.70
2022-12-09T17:21:52.632Z,14.90
2022-12-09T17:26:49.724Z,14.80
2022-12-09T17:29:18.382Z,14.30
2022-12-09T17:31:49.855Z,15.40
2022-12-09T17:34:19.471Z,16.10
2022-12-09T17:39:16.709Z,14.60
2022-12-09T17:41:45.329Z,15.10
2022-12-09T17:44:13.946Z,14.80
2022-12-09T17:46:43.203Z,15.10
2022-12-09T17:49:11.856Z,14.40
2022-12-09T17:51:40.465Z,15.90
2022-12-09T17:54:08.922Z,15.60
2022-12-09T17:56:37.761Z,16.20
2022-12-09T17:59:13.570Z,15.20
2022-12-09T18:01:44.216Z,15.20
2022-12-09T18:04:14.549Z,14.80
2022-12-09T18:06:45.910Z,14.80
2022-12-09T18:09:18.432Z,14.20
2022-12-09T18:11:47.435Z,13.50
2022-12-09T18:14:16.971Z,14.50
2022-12-09T18:16:49.487Z,14.50
2022-12-09T18:19:20.525Z,13.90
2022-12-09T18:21:49.146Z,13.90
2022-12-09T18:24:18.494Z,14.20
2022-12-09T18:26:47.433Z,14.70
2022-12-09T18:29:16.050Z,13.90
2022-12-09T18:31:54.052Z,12.70
2022-12-09T18:34:28.490Z,13.40
2022-12-09T18:36:57.035Z,13.10
2022-12-09T18:39:25.568Z,14.00
2022-12-09T18:41:54.270Z,14.20
2022-12-09T18:44:22.976Z,13.70
2022-12-09T18:46:51.543Z,13.10
2022-12-09T18:49:28.617Z,13.30
2022-12-09T18:51:57.224Z,12.50
2022-12-09T18:54:29.079Z,12.50
2022-12-09T18:56:58.117Z,13.60
2022-12-09T18:59:26.697Z,13.00
2022-12-09T19:01:55.252Z,13.10
2022-12-09T19:04:28.230Z,12.90
2022-12-09T19:07:00.364Z,13.70
2022-12-09T19:09:33.649Z,13.20
2022-12-09T19:12:37.968Z,13.10
2022-12-09T19:14:53.347Z,13.60
2022-12-09T19:17:22.075Z,13.60
2022-12-09T19:19:50.615Z,13.20
2022-12-09T19:22:19.151Z,11.90
2022-12-09T19:24:47.827Z,11.60
2022-12-09T19:27:16.581Z,12.20
2022-12-09T19:29:45.640Z,12.90
2022-12-09T19:32:50.926Z,13.00
2022-12-09T19:35:03.280Z,14.00
2022-12-09T19:37:31.814Z,13.90
2022-12-09T19:40:00.327Z,13.60
2022-12-09T19:42:28.934Z,14.30
2022-12-09T19:45:02.422Z,12.40
2022-12-09T19:47:32.410Z,13.40
2022-12-09T19:50:01.002Z,13.00
2022-12-09T19:52:29.498Z,12.90
2022-12-09T19:54:58.165Z,13.20
2022-12-09T19:57:26.805Z,14.90
2022-12-09T19:59:55.229Z,14.60
2022-12-09T20:02:23.836Z,14.40
2022-12-09T20:04:52.393Z,14.90
2022-12-09T20:07:21.074Z,15.20
2022-12-09T20:09:49.965Z,15.00
2022-12-09T20:12:18.753Z,14.40
2022-12-09T20:14:47.254Z,13.20
2022-12-09T20:17:17.601Z,15.50
2022-12-09T20:19:47.087Z,16.00
2022-12-09T20:22:15.752Z,17.70
2022-12-09T20:24:44.479Z,16.40
2022-12-09T20:27:13.134Z,16.30
2022-12-09T20:29:41.743Z,14.50
2022-12-09T20:32:10.386Z,15.00
2022-12-09T20:34:39.301Z,13.00
2022-12-09T20:37:07.977Z,12.10
2022-12-09T20:39:36.635Z,12.80
2022-12-09T20:42:05.228Z,10.90
2022-12-09T20:44:33.749Z,10.90
2022-12-09T20:47:02.242Z,10.40
2022-12-09T20:49:31.103Z,10.30
2022-12-09T20:51:59.669Z,9.80
2022-12-09T20:54:28.356Z,9.70
2022-12-09T20:56:56.945Z,10.40
2022-12-09T20:59:25.589Z,9.80
2022-12-09T21:01:56.075Z,9.90
2022-12-09T21:04:24.841Z,10.30
2022-12-09T21:06:53.657Z,10.10
2022-12-09T21:09:24.976Z,12.00
2022-12-09T21:11:54.177Z,11.00
2022-12-09T21:14:28.129Z,11.10
2022-12-09T21:17:01.222Z,10.30
2022-12-09T21:19:30.645Z,10.20
2022-12-09T21:21:59.357Z,10.70
2022-12-09T21:24:28.258Z,10.70
2022-12-09T21:26:57.462Z,10.60
2022-12-09T21:29:31.628Z,9.70
2022-12-09T21:32:02.056Z,9.90
2022-12-09T21:36:59.358Z,10.30
2022-12-09T21:39:28.594Z,9.80
2022-12-09T21:41:57.348Z,9.80
2022-12-09T21:44:27.336Z,10.40
2022-12-09T21:46:56.044Z,10.00
2022-12-09T21:49:24.728Z,10.70
2022-12-09T21:51:53.516Z,11.00
2022-12-09T21:54:22.311Z,10.70
2022-12-09T21:56:51.030Z,10.50
2022-12-09T21:59:19.676Z,10.30
2022-12-09T22:01:48.569Z,10.20
2022-12-09T22:04:18.358Z,12.40
2022-12-09T22:09:20.882Z,12.00
2022-12-09T22:11:49.499Z,11.50
2022-12-09T22:14:18.082Z,12.20
2022-12-09T22:16:46.901Z,12.90
2022-12-09T22:19:19.833Z,12.20
2022-12-09T22:21:48.982Z,10.60
2022-12-09T22:24:18.543Z,11.20
2022-12-09T22:26:47.512Z,10.80
2022-12-09T22:29:17.528Z,12.40
2022-12-09T22:31:47.140Z,11.50
2022-12-09T22:36:49.981Z,11.00
2022-12-09T22:41:52.007Z,10.40
2022-12-09T22:44:21.295Z,11.20
2022-12-09T22:46:50.101Z,10.30
2022-12-09T22:49:19.094Z,10.70
2022-12-09T22:51:48.175Z,11.90
2022-12-09T22:54:17.341Z,11.00
2022-12-09T22:56:46.071Z,11.50
2022-12-09T22:59:15.198Z,11.00
2022-12-09T23:01:49.829Z,12.80
2022-12-09T23:04:22.079Z,11.00
2022-12-09T23:06:51.689Z,11.60
2022-12-09T23:09:24.261Z,12.10
2022-12-09T23:11:53.254Z,12.20
2022-12-09T23:14:21.923Z,11.90
2022-12-09T23:16:50.503Z,13.10
2022-12-09T23:19:19.291Z,12.60
2022-12-09T23:21:48.052Z,11.60
2022-12-09T23:24:22.836Z,13.10
2022-12-09T23:26:56.291Z,11.80
2022-12-09T23:29:24.999Z,12.10
2022-12-09T23:31:53.879Z,10.80
2022-12-09T23:34:24.040Z,11.70
2022-12-09T23:36:52.685Z,11.90
2022-12-09T23:39:21.410Z,12.70
2022-12-09T23:41:49.829Z,11.50
2022-12-09T23:44:19.562Z,12.10
2022-12-09T23:46:48.620Z,11.50
2022-12-09T23:49:17.997Z,12.20
2022-12-09T23:51:46.644Z,11.30
2022-12-09T23:54:17.890Z,12.00
2022-12-09T23:56:50.981Z,10.70
2022-12-09T23:59:23.282Z,10.70
